Time;durP1;ratioP1;P1;durP2;ratioP2;P2;SDS_P1;SDS_P2;PMS_P1;PMS_P2;Temp;Humidity;BMP_temperature;BMP_pressure;BME280_temperature;BME280_humidity;BME280_pressure;Samples;Min_cycle;Max_cycle;Signal;HPM_P1;HPM_P2
2020/12/20 00:00:14;;;;;;;65.82;47.38;;;;;;;10.20;75.41;101469.72;4973712;28;98518;-72
2020/12/20 00:02:46;;;;;;;56.38;45.80;;;;;;;10.13;76.13;101469.94;4970992;28;97158;-72
2020/12/20 00:05:13;;;;;;;58.95;45.30;;;;;;;10.05;76.51;101458.88;4971533;28;96971;-70
2020/12/20 00:07:40;;;;;;;66.03;44.75;;;;;;;10.04;76.39;101454.56;4953455;28;98727;-71
2020/12/20 00:10:07;;;;;;;61.10;44.70;;;;;;;10.00;76.62;101447.72;4969022;28;97438;-71
2020/12/20 00:12:35;;;;;;;60.45;47.25;;;;;;;10.06;76.60;101465.78;4966667;28;96660;-71
2020/12/20 00:15:04;;;;;;;59.92;44.28;;;;;;;10.10;76.61;101457.84;4969642;28;97404;-73
2020/12/20 00:17:31;;;;;;;61.63;46.95;;;;;;;10.24;76.05;101465.31;4964535;28;99264;-73
2020/12/20 00:19:58;;;;;;;61.22;46.33;;;;;;;10.20;76.22;101463.66;4967898;28;98546;-73
2020/12/20 00:22:24;;;;;;;55.38;42.72;;;;;;;10.28;75.42;101456.50;4964505;28;97228;-73
2020/12/20 00:24:50;;;;;;;60.20;44.78;;;;;;;10.26;75.64;101445.25;4965874;28;97997;-73
2020/12/20 00:27:17;;;;;;;58.75;44.40;;;;;;;10.25;75.77;101451.38;4969733;28;98539;-73
2020/12/20 00:29:43;;;;;;;58.13;43.08;;;;;;;10.17;75.52;101451.56;4969710;28;98596;-73
2020/12/20 00:32:11;;;;;;;56.17;43.67;;;;;;;10.19;76.00;101449.78;4971783;28;97126;-73
2020/12/20 00:34:37;;;;;;;57.35;43.30;;;;;;;10.17;76.39;101443.75;4971943;28;97154;-74
2020/12/20 00:37:05;;;;;;;61.88;46.75;;;;;;;10.18;75.91;101445.47;4971538;28;98809;-72
2020/12/20 00:39:31;;;;;;;59.65;45.42;;;;;;;10.23;75.56;101443.59;4971791;28;98822;-72
2020/12/20 00:42:00;;;;;;;56.08;41.78;;;;;;;10.26;75.66;101442.66;4953575;28;97023;-72
2020/12/20 00:44:26;;;;;;;56.17;43.78;;;;;;;10.28;75.32;101446.09;4972447;28;97152;-73
2020/12/20 00:46:54;;;;;;;56.75;43.17;;;;;;;10.19;75.28;101441.94;4972000;28;98698;-73
2020/12/20 00:49:22;;;;;;;52.20;40.17;;;;;;;10.20;75.28;101442.81;4971619;28;98646;-73
2020/12/20 00:51:51;;;;;;;56.83;43.85;;;;;;;10.19;75.46;101446.31;4965209;28;96951;-73
2020/12/20 00:54:17;;;;;;;58.65;46.67;;;;;;;10.12;76.14;101440.44;4937794;28;98680;-74
2020/12/20 00:56:45;;;;;;;60.30;45.13;;;;;;;10.03;76.67;101440.69;4971504;28;97389;-74
2020/12/20 00:59:13;;;;;;;58.88;45.90;;;;;;;10.15;75.70;101440.31;4971981;28;98602;-74
2020/12/20 01:01:39;;;;;;;54.90;41.25;;;;;;;10.13;75.72;101436.06;4947336;28;98217;-73
2020/12/20 01:04:06;;;;;;;57.72;41.15;;;;;;;10.16;75.72;101429.00;4922210;28;97418;-74
2020/12/20 01:06:33;;;;;;;56.75;43.78;;;;;;;9.93;76.60;101426.22;4971201;28;98537;-73
2020/12/20 01:09:21;;;;;;;53.03;41.38;;;;;;;10.02;76.17;101435.53;4948117;28;100347;-73
2020/12/20 01:11:49;;;;;;;56.67;45.03;;;;;;;10.04;76.67;101428.50;4971230;28;97082;-73
2020/12/20 01:14:18;;;;;;;61.33;45.55;;;;;;;10.06;76.14;101434.53;4953716;28;96881;-73
2020/12/20 01:17:04;;;;;;;61.35;44.25;;;;;;;10.05;76.32;101432.81;4956812;28;98207;-74
2020/12/20 01:19:41;;;;;;;59.00;44.38;;;;;;;10.03;76.46;101429.41;4951168;28;100509;-74
2020/12/20 01:22:08;;;;;;;57.00;43.90;;;;;;;10.06;76.40;101424.09;4971327;28;97040;-73
2020/12/20 01:24:35;;;;;;;63.35;45.15;;;;;;;10.06;76.67;101424.09;4951424;28;97314;-74
2020/12/20 01:27:05;;;;;;;55.65;41.95;;;;;;;10.10;76.07;101420.50;4953169;28;99682;-74
2020/12/20 01:29:31;;;;;;;58.78;44.13;;;;;;;10.10;75.94;101426.56;4972134;28;98878;-74
2020/12/20 01:31:59;;;;;;;53.45;41.67;;;;;;;10.14;75.63;101425.59;4940312;28;96614;-73
2020/12/20 01:34:26;;;;;;;60.13;41.15;;;;;;;10.13;75.57;101431.72;4957086;28;96850;-74
2020/12/20 01:36:55;;;;;;;52.15;40.40;;;;;;;10.11;75.99;101428.28;4956121;28;99662;-73
2020/12/20 01:39:23;;;;;;;58.53;42.72;;;;;;;10.11;76.08;101432.63;4956071;28;99598;-73
2020/12/20 01:41:53;;;;;;;62.72;43.85;;;;;;;10.08;76.16;101432.75;4964442;28;97312;-74
2020/12/20 01:44:29;;;;;;;56.20;39.95;;;;;;;10.02;76.84;101430.31;4955772;28;96711;-73
2020/12/20 01:46:56;;;;;;;57.83;39.90;;;;;;;10.12;75.85;101429.13;4972866;28;98737;-73
2020/12/20 01:49:23;;;;;;;54.22;42.03;;;;;;;10.09;75.84;101430.09;4952507;28;100415;-73
2020/12/20 01:51:50;;;;;;;58.47;42.95;;;;;;;10.09;75.76;101432.69;4955051;28;96733;-72
2020/12/20 01:54:19;;;;;;;56.08;39.65;;;;;;;10.15;75.66;101427.28;4924183;28;96726;-73
2020/12/20 01:57:03;;;;;;;56.33;41.53;;;;;;;10.16;75.48;101430.75;4941729;28;100063;-74
2020/12/20 01:59:48;;;;;;;62.03;41.47;;;;;;;10.04;76.04;101426.75;4961644;28;97055;-74
2020/12/20 02:02:15;;;;;;;56.50;40.08;;;;;;;9.96;76.79;101421.78;4952730;28;97408;-73
2020/12/20 02:04:47;;;;;;;55.38;41.50;;;;;;;10.06;76.20;101424.09;4951937;28;97070;-74
2020/12/20 02:07:13;;;;;;;55.72;41.85;;;;;;;10.13;75.75;101421.28;4933213;28;98502;-74
2020/12/20 02:09:45;;;;;;;55.63;44.15;;;;;;;10.10;75.75;101417.91;4954506;28;100333;-74
2020/12/20 02:12:14;;;;;;;56.10;43.60;;;;;;;10.12;75.93;101418.72;4953868;28;97869;-73
2020/12/20 02:15:02;;;;;;;59.72;44.05;;;;;;;9.90;76.15;101416.72;4955503;28;97027;-74
2020/12/20 02:17:28;;;;;;;60.65;42.15;;;;;;;9.79;76.75;101417.94;4952262;28;99856;-73
2020/12/20 02:20:12;;;;;;;57.17;43.25;;;;;;;9.90;76.24;101418.47;4965559;28;100039;-75
2020/12/20 02:22:57;;;;;;;52.08;41.17;;;;;;;10.00;76.01;101416.47;4964637;28;96958;-76
2020/12/20 02:25:29;;;;;;;60.65;43.72;;;;;;;9.97;76.69;101420.03;4951627;28;96850;-74
2020/12/20 02:28:02;;;;;;;62.40;44.35;;;;;;;10.02;75.93;101412.09;4941162;28;99842;-73
2020/12/20 02:30:34;;;;;;;58.25;44.08;;;;;;;9.94;76.17;101410.53;4958910;28;99997;-75
2020/12/20 02:33:09;;;;;;;;;;;;;;;9.88;76.43;101413.31;4949285;28;96929;-73
2020/12/20 02:35:35;;;;;;;59.05;42.25;;;;;;;9.95;76.35;101417.44;4950159;28;96649;-74
2020/12/20 02:38:01;;;;;;;57.38;43.53;;;;;;;9.98;76.14;101413.91;4951775;28;100502;-74
2020/12/20 02:40:29;;;;;;;57.75;42.72;;;;;;;9.96;76.47;101413.13;4949128;28;100017;-75
2020/12/20 02:43:03;;;;;;;59.42;44.28;;;;;;;10.01;76.14;101407.75;4922705;28;96572;-75
2020/12/20 02:45:29;;;;;;;56.50;42.15;;;;;;;10.04;75.62;101405.06;4952318;28;96665;-74
2020/12/20 02:47:56;;;;;;;58.53;42.13;;;;;;;10.10;75.80;101405.72;4935523;28;100383;-75
2020/12/20 02:50:36;;;;;;;54.60;40.97;;;;;;;10.08;75.74;101401.47;4952323;28;98787;-74
2020/12/20 02:53:03;;;;;;;58.80;42.17;;;;;;;10.14;74.88;101403.91;4952013;28;96646;-74
2020/12/20 02:55:31;;;;;;;56.90;41.90;;;;;;;10.00;75.74;101403.44;4956000;28;97551;-74
2020/12/20 02:58:08;;;;;;;55.47;40.63;;;;;;;9.95;76.00;101411.38;4952805;28;99781;-74
2020/12/20 03:01:00;;;;;;;59.55;43.80;;;;;;;9.82;76.17;101410.91;4955060;28;98178;-74
2020/12/20 03:03:27;;;;;;;59.38;42.50;;;;;;;9.84;76.43;101410.84;4954773;28;97230;-75
2020/12/20 03:05:54;;;;;;;55.25;40.08;;;;;;;9.85;76.79;101407.34;4954345;28;96716;-73
2020/12/20 03:08:22;;;;;;;55.50;42.13;;;;;;;9.91;76.50;101408.03;4956390;28;98729;-73
2020/12/20 03:10:50;;;;;;;57.80;42.80;;;;;;;9.87;76.83;101402.97;4955154;28;98778;-74
2020/12/20 03:13:18;;;;;;;58.45;42.60;;;;;;;9.77;77.38;101404.97;4954078;28;96657;-74
2020/12/20 03:15:49;;;;;;;54.72;42.38;;;;;;;9.88;76.90;101395.09;4958821;28;97165;-74
2020/12/20 03:18:19;;;;;;;54.67;41.03;;;;;;;9.98;76.57;101393.06;4958162;28;99827;-74
2020/12/20 03:20:57;;;;;;;56.58;40.90;;;;;;;9.89;76.35;101395.94;4953322;28;99870;-74
2020/12/20 03:23:26;;;;;;;54.38;42.58;;;;;;;9.81;76.96;101393.56;4940139;28;97671;-73
2020/12/20 03:26:28;;;;;;;56.42;41.85;;;;;;;9.94;76.54;101401.88;4956946;28;98212;-73
2020/12/20 03:29:12;;;;;;;61.78;43.90;;;;;;;9.90;77.02;101397.63;4965720;28;99282;-73
2020/12/20 03:31:59;;;;;;;63.25;43.38;;;;;;;9.79;76.95;101394.50;4948584;28;97214;-73
2020/12/20 03:34:48;;;;;;;55.05;42.30;;;;;;;9.70;77.55;101395.63;4958347;28;97411;-72
2020/12/20 03:37:20;;;;;;;61.65;45.17;;;;;;;9.78;77.10;101400.59;4950397;28;97265;-73
2020/12/20 03:40:03;;;;;;;53.40;41.13;;;;;;;9.76;77.34;101392.00;4960753;28;100560;-73
2020/12/20 03:42:31;;;;;;;50.83;40.95;;;;;;;9.85;77.08;101399.53;4949729;28;100480;-73
2020/12/20 03:44:58;;;;;;;55.17;42.75;;;;;;;9.88;77.06;101395.09;4945842;28;100580;-73
2020/12/20 03:47:24;;;;;;;52.20;39.20;;;;;;;9.82;77.04;101399.63;4943666;28;97066;-74
2020/12/20 03:49:51;;;;;;;49.45;38.40;;;;;;;9.78;77.44;101393.66;4965498;28;100325;-74
2020/12/20 03:52:19;;;;;;;57.65;41.78;;;;;;;9.76;77.59;101385.03;4947680;28;98563;-73
2020/12/20 03:54:56;;;;;;;55.58;39.00;;;;;;;9.74;77.14;101392.00;4957645;28;96866;-74
2020/12/20 03:57:23;;;;;;;58.70;42.55;;;;;;;9.67;77.71;101393.09;4962235;28;96823;-74
2020/12/20 03:59:50;;;;;;;56.75;43.13;;;;;;;9.64;78.42;101388.84;4945891;28;99859;-73
2020/12/20 04:02:19;;;;;;;59.17;45.33;;;;;;;9.68;77.89;101387.00;4961688;28;100246;-73
2020/12/20 04:04:46;;;;;;;56.42;43.38;;;;;;;9.64;78.20;101386.25;4953574;28;96924;-73
2020/12/20 04:07:13;;;;;;;55.53;41.30;;;;;;;9.70;78.30;101382.59;4942481;28;100766;-74
2020/12/20 04:09:44;;;;;;;59.50;41.58;;;;;;;9.76;77.94;101384.19;4950297;28;100081;-73
2020/12/20 04:12:16;;;;;;;55.80;41.30;;;;;;;9.68;78.00;101379.19;4950696;28;99283;-74
2020/12/20 04:14:45;;;;;;;53.20;41.25;;;;;;;9.69;78.07;101373.94;4964056;28;97801;-74
2020/12/20 04:17:12;;;;;;;52.72;39.60;;;;;;;9.79;77.42;101379.72;4961497;28;96898;-74
2020/12/20 04:19:39;;;;;;;54.88;41.00;;;;;;;9.67;77.81;101380.06;4963213;28;100280;-74
2020/12/20 04:22:18;;;;;;;63.25;41.90;;;;;;;9.65;77.87;101385.34;4931407;28;99928;-74
2020/12/20 04:25:12;;;;;;;61.22;41.53;;;;;;;9.60;78.34;101373.34;4947110;28;98435;-73
2020/12/20 04:27:58;;;;;;;61.63;44.05;;;;;;;9.57;78.19;101381.22;4962327;28;97769;-73
2020/12/20 04:30:26;;;;;;;59.03;42.08;;;;;;;9.43;78.89;101382.47;4963430;28;100241;-73
2020/12/20 04:32:54;;;;;;;66.70;43.55;;;;;;;9.58;78.59;101380.31;4947901;28;98559;-73
2020/12/20 04:35:20;;;;;;;66.30;44.08;;;;;;;9.63;78.61;101378.44;4949963;28;99019;-73
2020/12/20 04:37:47;;;;;;;56.45;42.30;;;;;;;9.66;78.09;101373.16;4963114;28;99336;-73
2020/12/20 04:40:29;;;;;;;63.38;44.65;;;;;;;9.61;78.19;101373.28;4948554;28;99906;-73
2020/12/20 04:43:01;;;;;;;63.78;42.83;;;;;;;9.56;78.41;101380.38;4953883;28;98599;-74
2020/12/20 04:45:28;;;;;;;59.55;43.38;;;;;;;9.56;78.49;101377.78;4947805;28;96822;-73
2020/12/20 04:47:56;;;;;;;60.95;43.25;;;;;;;9.64;78.61;101386.25;4933170;28;98231;-73
2020/12/20 04:50:28;;;;;;;61.00;42.97;;;;;;;9.60;78.57;101386.38;4936998;28;99570;-73
2020/12/20 04:52:55;;;;;;;63.30;45.92;;;;;;;9.68;78.19;101389.59;4943924;28;98565;-73
2020/12/20 04:55:40;;;;;;;63.53;44.42;;;;;;;9.62;78.91;101394.97;4951777;28;96848;-74
2020/12/20 04:58:26;;;;;;;71.32;45.53;;;;;;;9.58;78.75;101390.75;4949857;28;97461;-73
2020/12/20 05:00:58;;;;;;;64.10;42.10;;;;;;;9.63;78.30;101386.25;4947206;28;99910;-74
2020/12/20 05:03:25;;;;;;;69.53;46.47;;;;;;;9.64;78.22;101385.34;4943851;28;100297;-74
2020/12/20 05:05:52;;;;;;;64.15;44.58;;;;;;;9.65;78.52;101384.50;4958367;28;97339;-74
2020/12/20 05:08:21;;;;;;;62.25;44.50;;;;;;;9.74;77.79;101391.16;4960833;28;99006;-75
2020/12/20 05:10:49;;;;;;;62.67;45.05;;;;;;;9.69;77.71;101386.09;4945522;28;101626;-74
2020/12/20 05:13:17;;;;;;;61.05;46.13;;;;;;;9.77;77.53;101381.53;4965112;28;100510;-74
2020/12/20 05:15:44;;;;;;;61.35;44.85;;;;;;;9.73;78.16;101379.91;4962649;28;97396;-74
2020/12/20 05:18:33;;;;;;;57.33;42.85;;;;;;;9.74;77.85;101373.78;4962514;28;96866;-74
2020/12/20 05:21:11;;;;;;;62.10;47.85;;;;;;;9.74;77.58;101371.19;4946068;28;99994;-74
2020/12/20 05:23:39;;;;;;;63.33;43.83;;;;;;;9.65;78.63;101371.47;4945552;28;100726;-74
2020/12/20 05:26:31;;;;;;;63.42;46.17;;;;;;;9.58;78.78;101377.72;4961729;28;96784;-74
2020/12/20 05:29:12;;;;;;;66.57;43.97;;;;;;;9.72;77.90;101383.41;4935155;28;97149;-74
2020/12/20 05:31:44;;;;;;;64.50;44.47;;;;;;;9.67;78.43;101370.50;4947993;28;100333;-74
2020/12/20 05:34:31;;;;;;;66.75;45.00;;;;;;;9.73;77.76;101372.09;4942476;28;101303;-75
2020/12/20 05:37:07;;;;;;;74.60;47.55;;;;;;;9.66;78.14;101368.81;4927340;28;98964;-75
2020/12/20 05:39:39;;;;;;;75.28;47.78;;;;;;;9.49;78.79;101363.22;4959124;28;97249;-74
2020/12/20 05:42:18;;;;;;;74.00;48.17;;;;;;;9.69;78.32;101370.47;4929927;28;99887;-74
2020/12/20 05:44:45;;;;;;;73.97;47.38;;;;;;;9.67;78.34;101369.66;4912150;28;100011;-75
2020/12/20 05:47:22;;;;;;;89.60;49.67;;;;;;;9.67;78.44;101369.66;4944025;28;98614;-74
2020/12/20 05:49:50;;;;;;;78.53;48.35;;;;;;;9.66;78.52;101362.75;4959496;28;99106;-74
2020/12/20 05:52:32;;;;;;;96.72;52.25;;;;;;;9.47;78.82;101356.34;4954005;28;99669;-74
2020/12/20 05:54:58;;;;;;;89.88;49.15;;;;;;;9.48;79.36;101363.25;4960223;28;98736;-73
2020/12/20 05:57:25;;;;;;;80.53;46.75;;;;;;;9.48;79.52;101358.94;4956872;28;98332;-74
2020/12/20 05:59:52;;;;;;;81.93;48.55;;;;;;;9.55;79.03;101370.03;4961694;28;96920;-73
2020/12/20 06:02:22;;;;;;;94.88;50.60;;;;;;;9.49;79.33;101370.19;4949306;28;99458;-73
2020/12/20 06:04:50;;;;;;;100.35;49.10;;;;;;;9.39;79.77;101367.84;4969486;28;97512;-72
2020/12/20 06:07:17;;;;;;;118.18;49.13;;;;;;;9.12;80.57;101372.03;4972906;28;96663;-73
2020/12/20 06:09:50;;;;;;;103.97;49.47;;;;;;;9.21;80.80;101372.66;4973488;28;96512;-72
2020/12/20 06:12:19;;;;;;;98.65;50.08;;;;;;;9.35;80.30;101370.56;4966014;28;100017;-73
2020/12/20 06:14:46;;;;;;;93.18;48.08;;;;;;;9.38;80.37;101366.13;4959943;28;99441;-73
2020/12/20 06:17:30;;;;;;;92.55;51.00;;;;;;;9.43;80.17;101377.28;4963109;28;97876;-75
2020/12/20 06:20:01;;;;;;;100.53;51.22;;;;;;;9.48;79.72;101378.88;4943921;28;97248;-74
2020/12/20 06:22:44;;;;;;;93.03;49.33;;;;;;;9.54;79.92;101383.94;4961290;28;97674;-74
2020/12/20 06:25:10;;;;;;;103.50;48.58;;;;;;;9.56;79.71;101382.13;4945154;28;99126;-74
2020/12/20 06:27:37;;;;;;;140.80;52.25;;;;;;;9.52;79.83;101380.50;4948026;28;96727;-74
2020/12/20 06:30:05;;;;;;;123.47;49.40;;;;;;;9.49;79.65;101371.03;4947810;28;97942;-74
2020/12/20 06:32:42;;;;;;;87.55;47.78;;;;;;;9.36;81.09;101380.91;4963458;28;98725;-74
2020/12/20 06:35:18;;;;;;;101.88;49.10;;;;;;;9.49;80.47;101375.41;4961198;28;98748;-74
2020/12/20 06:37:46;;;;;;;81.95;48.58;;;;;;;9.55;80.13;101377.81;4966004;28;98168;-74
2020/12/20 06:40:13;;;;;;;93.43;50.55;;;;;;;9.57;79.65;101376.88;4961542;28;97910;-74
2020/12/20 06:42:43;;;;;;;102.55;52.38;;;;;;;9.42;80.42;101385.09;4963635;28;98594;-74
2020/12/20 06:45:16;;;;;;;77.93;49.72;;;;;;;9.46;80.63;101381.53;4957905;28;98384;-74
2020/12/20 06:47:47;;;;;;;106.60;49.63;;;;;;;9.43;80.35;101371.22;4958248;28;97262;-74
2020/12/20 06:50:14;;;;;;;84.90;51.75;;;;;;;9.47;80.85;101379.78;4949481;28;96711;-74
2020/12/20 06:52:45;;;;;;;78.75;48.80;;;;;;;9.57;79.57;101382.09;4972773;28;98482;-73
2020/12/20 06:55:12;;;;;;;68.40;45.75;;;;;;;9.59;79.66;101384.66;4961155;28;101861;-74
2020/12/20 06:58:03;;;;;;;93.15;45.50;;;;;;;9.49;79.87;101381.44;4957658;28;98243;-74
2020/12/20 07:00:52;;;;;;;66.28;48.13;;;;;;;9.51;79.65;101378.81;4961176;28;96671;-74
2020/12/20 07:03:21;;;;;;;64.28;45.40;;;;;;;9.61;79.62;101378.50;4960495;28;98647;-74
2020/12/20 07:05:48;;;;;;;60.45;41.67;;;;;;;9.59;79.31;101375.09;4959171;28;98701;-74
2020/12/20 07:08:21;;;;;;;74.88;46.40;;;;;;;9.67;78.63;101385.28;4959060;28;96639;-74
2020/12/20 07:10:50;;;;;;;61.33;43.25;;;;;;;9.55;78.82;101385.63;4964015;28;97210;-74
2020/12/20 07:13:34;;;;;;;58.15;44.65;;;;;;;9.50;79.39;101392.72;4957199;28;98581;-74
2020/12/20 07:16:08;;;;;;;66.68;48.30;;;;;;;9.43;79.71;101402.44;4968439;28;98541;-74
2020/12/20 07:18:40;;;;;;;58.75;44.92;;;;;;;9.57;79.15;101404.66;4968730;28;97237;-73
2020/12/20 07:21:09;;;;;;;64.63;46.00;;;;;;;9.64;78.35;101406.19;4971151;28;96586;-73
2020/12/20 07:23:39;;;;;;;59.10;42.92;;;;;;;9.59;78.74;101401.13;4970004;28;98644;-74
2020/12/20 07:26:05;;;;;;;59.30;44.15;;;;;;;9.58;79.10;101401.16;4970436;28;98652;-73
2020/12/20 07:28:32;;;;;;;57.42;41.63;;;;;;;9.56;79.17;101400.34;4970498;28;96590;-73
2020/12/20 07:30:59;;;;;;;57.33;42.25;;;;;;;9.56;79.31;101397.75;4969092;28;96830;-69
2020/12/20 07:33:25;;;;;;;58.45;42.63;;;;;;;9.66;78.85;101409.63;4966363;28;98588;-67
2020/12/20 07:35:51;;;;;;;57.80;44.05;;;;;;;9.62;78.56;101402.78;4955430;28;98415;-69
2020/12/20 07:38:18;;;;;;;64.80;45.50;;;;;;;9.57;78.90;101405.50;4969942;28;97712;-69
2020/12/20 07:40:44;;;;;;;66.55;42.55;;;;;;;9.45;79.07;101404.09;4961730;28;96724;-69
2020/12/20 07:43:11;;;;;;;68.57;43.95;;;;;;;9.28;79.66;101413.25;4975318;28;98475;-69
2020/12/20 07:45:37;;;;;;;61.33;44.42;;;;;;;9.16;80.65;101411.78;4960675;28;98702;-69
2020/12/20 07:48:03;;;;;;;73.60;47.53;;;;;;;9.16;80.55;101412.69;4970405;28;96584;-69
2020/12/20 07:50:30;;;;;;;60.92;42.33;;;;;;;9.41;79.96;101412.88;4971377;28;96719;-69
2020/12/20 07:52:56;;;;;;;58.47;43.78;;;;;;;9.44;79.77;101414.56;4963743;28;98771;-70
2020/12/20 07:55:23;;;;;;;59.35;44.55;;;;;;;9.58;79.26;101416.78;4974762;28;98798;-70
2020/12/20 07:57:49;;;;;;;65.15;45.58;;;;;;;9.53;79.23;101422.09;4975573;28;96548;-69
2020/12/20 08:00:16;;;;;;;57.28;42.75;;;;;;;9.51;79.22;101417.84;4973211;28;96701;-70
2020/12/20 08:02:49;;;;;;;63.78;45.95;;;;;;;9.50;79.70;101413.53;4967249;28;98471;-70
2020/12/20 08:05:16;;;;;;;67.07;46.00;;;;;;;9.39;79.85;101406.03;4967690;28;97555;-70
2020/12/20 08:07:44;;;;;;;63.88;45.47;;;;;;;9.47;79.86;101413.59;4968741;28;97128;-76
2020/12/20 08:10:10;;;;;;;64.18;43.85;;;;;;;9.49;79.51;101410.09;4953645;28;97289;-76
2020/12/20 08:12:51;;;;;;;65.70;45.15;;;;;;;9.38;80.58;101420.78;4960836;28;98825;-76
2020/12/20 08:15:17;;;;;;;;;;;;;;;9.53;79.99;101419.50;4954294;28;97529;-77
2020/12/20 08:17:44;;;;;;;67.75;46.45;;;;;;;9.55;80.11;101422.06;4971885;28;97112;-74
2020/12/20 08:20:11;;;;;;;67.93;45.45;;;;;;;9.54;80.17;101421.22;4971410;28;97205;-69
2020/12/20 08:22:37;;;;;;;65.20;46.08;;;;;;;9.76;78.82;101410.22;4955132;28;98574;-73
2020/12/20 08:25:07;;;;;;;69.00;46.28;;;;;;;9.67;79.22;101411.31;4955877;28;98600;-70
2020/12/20 08:27:36;;;;;;;77.68;49.58;;;;;;;9.68;78.81;101420.84;4956107;28;96604;-74
2020/12/20 08:30:05;;;;;;;68.82;46.75;;;;;;;9.56;79.37;101414.22;4955780;28;97031;-73
2020/12/20 08:32:40;;;;;;;65.22;45.97;;;;;;;9.64;79.30;101417.47;4969747;28;97568;-74
2020/12/20 08:35:14;;;;;;;68.97;48.47;;;;;;;9.43;80.31;101426.72;4966021;28;98731;-73
2020/12/20 08:37:42;;;;;;;79.73;47.10;;;;;;;9.34;80.36;101424.34;4971172;28;96751;-73
2020/12/20 08:40:15;;;;;;;73.10;45.83;;;;;;;9.31;81.05;101428.78;4971996;28;96786;-72
2020/12/20 08:42:42;;;;;;;69.32;45.53;;;;;;;9.56;80.01;101431.59;4970450;28;98841;-75
2020/12/20 08:45:25;;;;;;;74.57;47.42;;;;;;;9.45;80.74;101432.72;4967785;28;98471;-72
2020/12/20 08:47:58;;;;;;;69.38;46.30;;;;;;;9.34;80.57;101433.91;4966566;28;96629;-73
2020/12/20 08:50:26;;;;;;;68.60;45.85;;;;;;;9.48;80.62;101430.94;4951448;28;96534;-70
2020/12/20 08:53:02;;;;;;;66.05;43.70;;;;;;;9.50;80.32;101434.38;4966086;28;98800;-69
2020/12/20 08:55:28;;;;;;;67.82;42.75;;;;;;;9.49;80.30;101437.88;4962252;28;98601;-68
2020/12/20 08:58:21;;;;;;;58.65;41.90;;;;;;;9.53;80.20;101431.66;4972896;28;96925;-66
2020/12/20 09:00:56;;;;;;;73.18;43.92;;;;;;;9.52;80.36;101437.75;4970532;28;96712;-67
2020/12/20 09:03:23;;;;;;;65.47;44.78;;;;;;;9.59;79.52;101436.72;4958057;28;98591;-66
2020/12/20 09:05:50;;;;;;;65.57;42.47;;;;;;;9.63;79.64;101436.56;4949132;28;98409;-71
2020/12/20 09:08:19;;;;;;;62.47;42.83;;;;;;;9.62;80.25;101440.09;4973068;28;97231;-68
2020/12/20 09:10:46;;;;;;;61.10;41.97;;;;;;;9.69;79.45;101440.75;4957639;28;97141;-69
2020/12/20 09:13:12;;;;;;;61.72;40.75;;;;;;;9.80;79.24;101443.06;4973307;28;98762;-64
2020/12/20 09:15:39;;;;;;;62.42;43.85;;;;;;;9.90;78.41;101444.53;4972924;28;98647;-68
2020/12/20 09:18:20;;;;;;;67.85;46.30;;;;;;;9.93;78.33;101442.69;4972233;28;97141;-71
2020/12/20 09:20:47;;;;;;;67.10;44.17;;;;;;;10.05;78.12;101440.63;4971751;28;96990;-69
2020/12/20 09:23:22;;;;;;;65.22;43.70;;;;;;;9.93;78.13;101439.25;4966917;28;98757;-67
2020/12/20 09:26:03;;;;;;;67.43;44.25;;;;;;;10.00;78.33;101439.91;4970162;28;98645;-69
2020/12/20 09:28:32;;;;;;;73.68;46.38;;;;;;;10.02;78.43;101438.13;4973792;28;96505;-69
2020/12/20 09:31:11;;;;;;;83.53;49.33;;;;;;;9.75;79.00;101440.63;4953075;28;96927;-70
2020/12/20 09:33:38;;;;;;;65.72;43.38;;;;;;;10.05;78.35;101443.25;4963097;28;98775;-71
2020/12/20 09:36:06;;;;;;;81.05;48.70;;;;;;;10.07;77.97;101442.31;4952608;28;98582;-69
2020/12/20 09:38:43;;;;;;;67.68;45.17;;;;;;;10.12;77.68;101445.66;4961537;28;98484;-74
2020/12/20 09:41:14;;;;;;;77.97;49.25;;;;;;;9.89;78.36;101437.63;4936249;28;97341;-72
2020/12/20 09:43:42;;;;;;;82.30;48.25;;;;;;;10.01;78.75;101442.47;4956304;28;98607;-69
2020/12/20 09:46:35;;;;;;;88.40;54.30;;;;;;;9.83;78.98;101443.00;4962635;28;98700;-70
2020/12/20 09:49:03;;;;;;;74.75;47.92;;;;;;;10.01;78.21;101447.69;4959727;28;98591;-71
2020/12/20 09:51:31;;;;;;;79.18;48.35;;;;;;;10.04;78.52;101442.38;4961606;28;96814;-70
2020/12/20 09:53:58;;;;;;;91.20;51.42;;;;;;;9.99;78.41;101444.28;4940327;28;98511;-73
2020/12/20 09:56:25;;;;;;;78.72;49.45;;;;;;;10.16;77.98;101441.19;4967584;28;97682;-69
2020/12/20 09:58:53;;;;;;;87.32;53.08;;;;;;;10.29;77.33;101441.72;4971338;28;96650;-68
2020/12/20 10:01:23;;;;;;;87.70;54.83;;;;;;;10.28;77.47;101440.88;4970078;28;98052;-68
2020/12/20 10:03:53;;;;;;;99.38;56.40;;;;;;;10.42;76.53;101437.84;4961497;28;97919;-73
2020/12/20 10:06:20;;;;;;;84.35;51.72;;;;;;;10.41;76.30;101436.13;4971841;28;99871;-73
2020/12/20 10:08:46;;;;;;;87.05;54.25;;;;;;;10.43;76.73;101434.31;4961748;28;97134;-70
2020/12/20 10:11:17;;;;;;;97.72;56.47;;;;;;;10.48;76.24;101424.59;4963816;28;98505;-71
2020/12/20 10:13:44;;;;;;;91.72;56.13;;;;;;;10.57;75.59;101426.94;4946159;28;98729;-72
2020/12/20 10:16:11;;;;;;;93.65;56.05;;;;;;;10.65;74.82;101421.47;4960358;28;98679;-70
2020/12/20 10:18:39;;;;;;;93.70;57.00;;;;;;;10.73;74.61;101422.09;4965685;28;96745;-71
2020/12/20 10:21:08;;;;;;;101.80;61.13;;;;;;;10.53;74.85;101414.03;4969992;28;96600;-70
2020/12/20 10:23:34;;;;;;;107.55;64.38;;;;;;;10.60;74.89;101406.00;4970804;28;98594;-72
2020/12/20 10:26:01;;;;;;;89.25;55.72;;;;;;;10.74;73.84;101408.16;4971823;28;98353;-73
2020/12/20 10:28:27;;;;;;;105.82;57.63;;;;;;;10.74;73.57;101402.94;4972376;28;97837;-72
2020/12/20 10:30:54;;;;;;;104.57;62.10;;;;;;;10.64;73.53;101404.13;4972535;28;96868;-70
2020/12/20 10:33:21;;;;;;;107.72;61.53;;;;;;;10.62;74.61;101408.53;4970999;28;98670;-67
2020/12/20 10:35:47;;;;;;;104.95;62.42;;;;;;;10.72;73.68;101400.38;4972033;28;98673;-69
2020/12/20 10:38:15;;;;;;;107.07;59.55;;;;;;;10.82;73.52;101406.16;4972714;28;96772;-78
2020/12/20 10:40:44;;;;;;;106.40;59.10;;;;;;;10.81;73.57;101393.16;4972016;28;96769;-82
2020/12/20 10:43:18;;;;;;;103.65;58.40;;;;;;;10.80;73.97;101397.50;4970270;28;99022;-80
2020/12/20 10:45:45;;;;;;;114.13;73.50;;;;;;;10.75;73.05;101395.03;4971634;28;98355;-79
2020/12/20 10:48:12;;;;;;;105.30;62.88;;;;;;;10.81;73.18;101394.00;4971801;28;97383;-83
2020/12/20 10:50:38;;;;;;;96.00;57.72;;;;;;;10.89;72.67;101394.59;4970839;28;96658;-66
2020/12/20 10:53:07;;;;;;;103.45;58.47;;;;;;;10.93;72.47;101385.78;4969675;28;98403;-68
2020/12/20 10:55:36;;;;;;;105.60;57.33;;;;;;;10.69;72.68;101389.19;4951314;28;98472;-66
2020/12/20 10:58:03;;;;;;;102.47;57.80;;;;;;;10.60;73.44;101398.19;4969690;28;97168;-66
2020/12/20 11:00:36;;;;;;;101.82;60.40;;;;;;;10.57;73.35;101384.38;4972361;28;96783;-66
2020/12/20 11:03:05;;;;;;;98.13;58.20;;;;;;;10.67;73.18;101391.00;4971171;28;98841;-67
2020/12/20 11:05:31;;;;;;;96.57;64.90;;;;;;;10.43;74.13;101393.47;4972609;28;98450;-66
2020/12/20 11:07:59;;;;;;;85.15;57.72;;;;;;;10.51;74.00;101392.38;4971166;28;97117;-65
2020/12/20 11:10:25;;;;;;;91.50;59.78;;;;;;;10.62;73.99;101391.16;4971495;28;97204;-64
2020/12/20 11:12:52;;;;;;;95.22;57.67;;;;;;;10.46;74.92;101388.16;4970573;28;98960;-66
2020/12/20 11:15:18;;;;;;;84.10;54.78;;;;;;;10.60;74.30;101386.88;4969454;28;98733;-67
2020/12/20 11:17:46;;;;;;;97.68;52.92;;;;;;;10.66;74.14;101374.50;4957218;28;98183;-66
2020/12/20 11:20:12;;;;;;;86.00;55.03;;;;;;;10.52;74.18;101370.63;4975567;28;97096;-69
2020/12/20 11:22:39;;;;;;;87.32;52.83;;;;;;;10.49;74.18;101380.25;4974636;28;98526;-62
2020/12/20 11:25:05;;;;;;;81.68;51.70;;;;;;;10.57;73.79;101380.00;4973611;28;98642;-62
2020/12/20 11:27:32;;;;;;;79.57;48.35;;;;;;;10.56;74.03;101380.91;4975494;28;96507;-62
2020/12/20 11:29:58;;;;;;;82.65;47.95;;;;;;;10.63;73.51;101385.03;4973864;28;96714;-59